sensor_id;sensor_type;location;lat;lon;timestamp;P1;durP1;ratioP1;P2;durP2;ratioP2
37945;SDS011;23769;52.478;13.448;2023-03-01T00:00:06;27.88;;;13.57;;
37945;SDS011;23769;52.478;13.448;2023-03-01T00:02:33;23.38;;;12.60;;
37945;SDS011;23769;52.478;13.448;2023-03-01T00:05:00;31.65;;;14.13;;
37945;SDS011;23769;52.478;13.448;2023-03-01T00:07:27;45.67;;;18.75;;
37945;SDS011;23769;52.478;13.448;2023-03-01T00:09:55;45.63;;;17.98;;
37945;SDS011;23769;52.478;13.448;2023-03-01T00:12:22;63.47;;;23.30;;
37945;SDS011;23769;52.478;13.448;2023-03-01T00:14:49;46.88;;;19.20;;
37945;SDS011;23769;52.478;13.448;2023-03-01T00:17:17;43.90;;;17.92;;
37945;SDS011;23769;52.478;13.448;2023-03-01T00:19:45;36.38;;;16.00;;
37945;SDS011;23769;52.478;13.448;2023-03-01T00:22:12;30.95;;;14.25;;
37945;SDS011;23769;52.478;13.448;2023-03-01T00:24:39;30.50;;;13.57;;
37945;SDS011;23769;52.478;13.448;2023-03-01T00:27:06;28.45;;;14.45;;
37945;SDS011;23769;52.478;13.448;2023-03-01T00:29:33;35.45;;;15.48;;
37945;SDS011;23769;52.478;13.448;2023-03-01T00:32:00;29.52;;;14.25;;
37945;SDS011;23769;52.478;13.448;2023-03-01T00:34:29;31.05;;;13.85;;
37945;SDS011;23769;52.478;13.448;2023-03-01T00:36:56;29.48;;;14.65;;
37945;SDS011;23769;52.478;13.448;2023-03-01T00:39:30;31.05;;;14.02;;
37945;SDS011;23769;52.478;13.448;2023-03-01T00:41:57;36.60;;;16.35;;
37945;SDS011;23769;52.478;13.448;2023-03-01T00:44:24;30.23;;;14.07;;
37945;SDS011;23769;52.478;13.448;2023-03-01T00:46:51;27.80;;;13.38;;
37945;SDS011;23769;52.478;13.448;2023-03-01T00:49:19;30.52;;;14.43;;
37945;SDS011;23769;52.478;13.448;2023-03-01T00:51:47;24.45;;;12.98;;
37945;SDS011;23769;52.478;13.448;2023-03-01T00:54:14;26.42;;;13.57;;
37945;SDS011;23769;52.478;13.448;2023-03-01T00:56:41;32.63;;;13.93;;
37945;SDS011;23769;52.478;13.448;2023-03-01T00:59:09;29.73;;;13.57;;
37945;SDS011;23769;52.478;13.448;2023-03-01T01:01:36;30.17;;;14.15;;
37945;SDS011;23769;52.478;13.448;2023-03-01T01:04:04;30.80;;;14.50;;
37945;SDS011;23769;52.478;13.448;2023-03-01T01:06:32;31.02;;;14.82;;
37945;SDS011;23769;52.478;13.448;2023-03-01T01:09:01;32.58;;;13.48;;
37945;SDS011;23769;52.478;13.448;2023-03-01T01:11:28;36.15;;;14.82;;
37945;SDS011;23769;52.478;13.448;2023-03-01T01:13:56;32.28;;;15.20;;
37945;SDS011;23769;52.478;13.448;2023-03-01T01:16:24;31.40;;;15.63;;
37945;SDS011;23769;52.478;13.448;2023-03-01T01:18:52;31.40;;;15.35;;
37945;SDS011;23769;52.478;13.448;2023-03-01T01:21:20;30.45;;;15.45;;
37945;SDS011;23769;52.478;13.448;2023-03-01T01:23:49;45.30;;;20.63;;
37945;SDS011;23769;52.478;13.448;2023-03-01T01:26:18;28.38;;;14.90;;
37945;SDS011;23769;52.478;13.448;2023-03-01T01:28:46;33.42;;;15.07;;
37945;SDS011;23769;52.478;13.448;2023-03-01T01:31:13;31.83;;;15.40;;
37945;SDS011;23769;52.478;13.448;2023-03-01T01:33:40;31.98;;;16.00;;
37945;SDS011;23769;52.478;13.448;2023-03-01T01:36:07;32.25;;;14.32;;
37945;SDS011;23769;52.478;13.448;2023-03-01T01:38:35;38.35;;;15.40;;
37945;SDS011;23769;52.478;13.448;2023-03-01T01:41:02;28.13;;;14.45;;
37945;SDS011;23769;52.478;13.448;2023-03-01T01:43:33;29.60;;;14.82;;
37945;SDS011;23769;52.478;13.448;2023-03-01T01:46:01;30.40;;;15.45;;
37945;SDS011;23769;52.478;13.448;2023-03-01T01:48:30;34.03;;;15.15;;
37945;SDS011;23769;52.478;13.448;2023-03-01T01:51:05;30.88;;;14.75;;
37945;SDS011;23769;52.478;13.448;2023-03-01T01:53:33;30.77;;;14.10;;
37945;SDS011;23769;52.478;13.448;2023-03-01T01:56:01;29.15;;;14.32;;
37945;SDS011;23769;52.478;13.448;2023-03-01T01:58:29;34.08;;;14.43;;
37945;SDS011;23769;52.478;13.448;2023-03-01T02:00:58;29.77;;;14.30;;
37945;SDS011;23769;52.478;13.448;2023-03-01T02:03:26;31.73;;;15.65;;
37945;SDS011;23769;52.478;13.448;2023-03-01T02:05:56;32.92;;;14.80;;
37945;SDS011;23769;52.478;13.448;2023-03-01T02:08:26;31.30;;;13.77;;
37945;SDS011;23769;52.478;13.448;2023-03-01T02:10:55;29.98;;;13.60;;
37945;SDS011;23769;52.478;13.448;2023-03-01T02:13:25;27.50;;;14.43;;
37945;SDS011;23769;52.478;13.448;2023-03-01T02:15:52;29.90;;;14.73;;
37945;SDS011;23769;52.478;13.448;2023-03-01T02:18:21;32.70;;;14.15;;
37945;SDS011;23769;52.478;13.448;2023-03-01T02:20:51;30.40;;;13.93;;
37945;SDS011;23769;52.478;13.448;2023-03-01T02:23:21;32.65;;;14.88;;
37945;SDS011;23769;52.478;13.448;2023-03-01T02:25:51;27.98;;;14.35;;
37945;SDS011;23769;52.478;13.448;2023-03-01T02:28:27;43.67;;;19.48;;
37945;SDS011;23769;52.478;13.448;2023-03-01T02:30:56;39.55;;;17.63;;
37945;SDS011;23769;52.478;13.448;2023-03-01T02:33:41;40.33;;;17.00;;
37945;SDS011;23769;52.478;13.448;2023-03-01T02:36:09;28.05;;;15.10;;
37945;SDS011;23769;52.478;13.448;2023-03-01T02:38:38;32.58;;;15.38;;
37945;SDS011;23769;52.478;13.448;2023-03-01T02:41:05;35.67;;;16.10;;
37945;SDS011;23769;52.478;13.448;2023-03-01T02:43:35;33.38;;;16.85;;
37945;SDS011;23769;52.478;13.448;2023-03-01T02:46:03;32.55;;;15.75;;
37945;SDS011;23769;52.478;13.448;2023-03-01T02:48:39;38.40;;;18.15;;
37945;SDS011;23769;52.478;13.448;2023-03-01T02:51:07;37.10;;;17.48;;
37945;SDS011;23769;52.478;13.448;2023-03-01T02:53:39;37.17;;;17.60;;
37945;SDS011;23769;52.478;13.448;2023-03-01T02:56:08;37.85;;;18.02;;
37945;SDS011;23769;52.478;13.448;2023-03-01T02:58:39;33.30;;;15.93;;
37945;SDS011;23769;52.478;13.448;2023-03-01T03:01:13;35.42;;;15.98;;
37945;SDS011;23769;52.478;13.448;2023-03-01T03:03:41;30.85;;;16.15;;
37945;SDS011;23769;52.478;13.448;2023-03-01T03:06:08;37.60;;;17.08;;
37945;SDS011;23769;52.478;13.448;2023-03-01T03:08:36;31.02;;;14.98;;
37945;SDS011;23769;52.478;13.448;2023-03-01T03:11:03;34.85;;;16.48;;
37945;SDS011;23769;52.478;13.448;2023-03-01T03:13:30;30.40;;;15.57;;
37945;SDS011;23769;52.478;13.448;2023-03-01T03:15:59;29.30;;;15.25;;
37945;SDS011;23769;52.478;13.448;2023-03-01T03:18:26;30.73;;;15.85;;
37945;SDS011;23769;52.478;13.448;2023-03-01T03:20:53;32.45;;;16.08;;
37945;SDS011;23769;52.478;13.448;2023-03-01T03:23:21;33.05;;;16.13;;
37945;SDS011;23769;52.478;13.448;2023-03-01T03:25:51;30.27;;;15.85;;
37945;SDS011;23769;52.478;13.448;2023-03-01T03:28:18;33.25;;;16.55;;
37945;SDS011;23769;52.478;13.448;2023-03-01T03:30:45;35.95;;;17.20;;
37945;SDS011;23769;52.478;13.448;2023-03-01T03:33:14;34.35;;;17.02;;
37945;SDS011;23769;52.478;13.448;2023-03-01T03:35:42;37.33;;;17.15;;
37945;SDS011;23769;52.478;13.448;2023-03-01T03:38:10;36.30;;;17.27;;
37945;SDS011;23769;52.478;13.448;2023-03-01T03:40:42;37.05;;;17.67;;
37945;SDS011;23769;52.478;13.448;2023-03-01T03:43:10;37.95;;;17.20;;
37945;SDS011;23769;52.478;13.448;2023-03-01T03:45:38;40.15;;;18.88;;
37945;SDS011;23769;52.478;13.448;2023-03-01T03:48:06;39.20;;;18.52;;
37945;SDS011;23769;52.478;13.448;2023-03-01T03:50:35;36.15;;;17.77;;
37945;SDS011;23769;52.478;13.448;2023-03-01T03:53:03;38.70;;;18.45;;
37945;SDS011;23769;52.478;13.448;2023-03-01T03:55:31;35.80;;;18.52;;
37945;SDS011;23769;52.478;13.448;2023-03-01T03:57:59;36.20;;;18.52;;
37945;SDS011;23769;52.478;13.448;2023-03-01T04:00:31;37.20;;;17.80;;
37945;SDS011;23769;52.478;13.448;2023-03-01T04:03:01;36.80;;;18.67;;
37945;SDS011;23769;52.478;13.448;2023-03-01T04:05:29;36.92;;;19.08;;
37945;SDS011;23769;52.478;13.448;2023-03-01T04:07:58;40.90;;;19.48;;
37945;SDS011;23769;52.478;13.448;2023-03-01T04:10:28;35.65;;;18.67;;
37945;SDS011;23769;52.478;13.448;2023-03-01T04:12:58;34.78;;;17.88;;
37945;SDS011;23769;52.478;13.448;2023-03-01T04:15:26;40.92;;;19.92;;
37945;SDS011;23769;52.478;13.448;2023-03-01T04:17:54;43.85;;;18.92;;
37945;SDS011;23769;52.478;13.448;2023-03-01T04:20:22;42.20;;;20.45;;
37945;SDS011;23769;52.478;13.448;2023-03-01T04:22:51;35.08;;;18.50;;
37945;SDS011;23769;52.478;13.448;2023-03-01T04:25:20;36.60;;;18.23;;
37945;SDS011;23769;52.478;13.448;2023-03-01T04:27:47;33.63;;;17.92;;
37945;SDS011;23769;52.478;13.448;2023-03-01T04:30:14;37.35;;;18.80;;
37945;SDS011;23769;52.478;13.448;2023-03-01T04:32:42;36.47;;;18.85;;
37945;SDS011;23769;52.478;13.448;2023-03-01T04:35:09;35.67;;;18.67;;
37945;SDS011;23769;52.478;13.448;2023-03-01T04:37:36;36.72;;;18.60;;
37945;SDS011;23769;52.478;13.448;2023-03-01T04:40:03;34.38;;;18.90;;
37945;SDS011;23769;52.478;13.448;2023-03-01T04:42:43;36.35;;;18.63;;
37945;SDS011;23769;52.478;13.448;2023-03-01T04:45:10;38.35;;;18.65;;
37945;SDS011;23769;52.478;13.448;2023-03-01T04:47:39;32.90;;;17.70;;
37945;SDS011;23769;52.478;13.448;2023-03-01T04:50:08;32.70;;;18.10;;
37945;SDS011;23769;52.478;13.448;2023-03-01T04:52:35;31.52;;;17.83;;
37945;SDS011;23769;52.478;13.448;2023-03-01T04:55:03;33.90;;;16.83;;
37945;SDS011;23769;52.478;13.448;2023-03-01T04:57:30;32.15;;;17.80;;
37945;SDS011;23769;52.478;13.448;2023-03-01T04:59:59;31.48;;;17.42;;
37945;SDS011;23769;52.478;13.448;2023-03-01T05:02:26;29.98;;;16.77;;
37945;SDS011;23769;52.478;13.448;2023-03-01T05:04:54;36.38;;;18.38;;
37945;SDS011;23769;52.478;13.448;2023-03-01T05:07:22;32.22;;;17.80;;
37945;SDS011;23769;52.478;13.448;2023-03-01T05:09:51;35.78;;;16.55;;
37945;SDS011;23769;52.478;13.448;2023-03-01T05:12:19;33.35;;;17.10;;
37945;SDS011;23769;52.478;13.448;2023-03-01T05:14:46;33.25;;;17.90;;
37945;SDS011;23769;52.478;13.448;2023-03-01T05:17:15;29.80;;;16.52;;
37945;SDS011;23769;52.478;13.448;2023-03-01T05:19:42;29.30;;;15.25;;
37945;SDS011;23769;52.478;13.448;2023-03-01T05:22:11;31.08;;;17.23;;
37945;SDS011;23769;52.478;13.448;2023-03-01T05:24:38;38.85;;;20.05;;
37945;SDS011;23769;52.478;13.448;2023-03-01T05:27:05;34.65;;;16.75;;
37945;SDS011;23769;52.478;13.448;2023-03-01T05:29:33;41.17;;;19.40;;
37945;SDS011;23769;52.478;13.448;2023-03-01T05:32:00;37.38;;;19.10;;
37945;SDS011;23769;52.478;13.448;2023-03-01T05:34:30;36.95;;;17.95;;
37945;SDS011;23769;52.478;13.448;2023-03-01T05:36:58;34.78;;;18.33;;
37945;SDS011;23769;52.478;13.448;2023-03-01T05:39:26;40.90;;;18.67;;
37945;SDS011;23769;52.478;13.448;2023-03-01T05:41:54;39.88;;;19.52;;
37945;SDS011;23769;52.478;13.448;2023-03-01T05:44:21;37.33;;;19.40;;
37945;SDS011;23769;52.478;13.448;2023-03-01T05:46:48;33.45;;;17.50;;
37945;SDS011;23769;52.478;13.448;2023-03-01T05:49:16;38.47;;;19.05;;
37945;SDS011;23769;52.478;13.448;2023-03-01T05:51:47;43.92;;;19.27;;
37945;SDS011;23769;52.478;13.448;2023-03-01T05:54:14;35.72;;;18.45;;
37945;SDS011;23769;52.478;13.448;2023-03-01T05:56:42;39.15;;;18.27;;
37945;SDS011;23769;52.478;13.448;2023-03-01T05:59:10;41.13;;;19.02;;
37945;SDS011;23769;52.478;13.448;2023-03-01T06:01:38;37.60;;;18.77;;
37945;SDS011;23769;52.478;13.448;2023-03-01T06:04:06;40.92;;;20.33;;
37945;SDS011;23769;52.478;13.448;2023-03-01T06:06:33;38.58;;;19.27;;
37945;SDS011;23769;52.478;13.448;2023-03-01T06:09:03;36.28;;;19.33;;
37945;SDS011;23769;52.478;13.448;2023-03-01T06:11:33;35.63;;;18.92;;
37945;SDS011;23769;52.478;13.448;2023-03-01T06:14:00;39.40;;;18.85;;
37945;SDS011;23769;52.478;13.448;2023-03-01T06:16:28;42.20;;;19.58;;
37945;SDS011;23769;52.478;13.448;2023-03-01T06:18:55;49.45;;;25.13;;
37945;SDS011;23769;52.478;13.448;2023-03-01T06:21:22;46.08;;;23.60;;
37945;SDS011;23769;52.478;13.448;2023-03-01T06:23:49;44.03;;;23.08;;
37945;SDS011;23769;52.478;13.448;2023-03-01T06:26:18;41.17;;;21.50;;
37945;SDS011;23769;52.478;13.448;2023-03-01T06:28:45;42.15;;;20.73;;
37945;SDS011;23769;52.478;13.448;2023-03-01T06:31:12;38.53;;;20.50;;
37945;SDS011;23769;52.478;13.448;2023-03-01T06:33:40;32.78;;;17.45;;
37945;SDS011;23769;52.478;13.448;2023-03-01T06:36:09;33.70;;;17.20;;
37945;SDS011;23769;52.478;13.448;2023-03-01T06:38:36;41.17;;;20.17;;
37945;SDS011;23769;52.478;13.448;2023-03-01T06:41:05;34.00;;;18.98;;
37945;SDS011;23769;52.478;13.448;2023-03-01T06:43:34;38.75;;;19.15;;
37945;SDS011;23769;52.478;13.448;2023-03-01T06:46:03;47.33;;;21.50;;
37945;SDS011;23769;52.478;13.448;2023-03-01T06:48:31;38.95;;;17.83;;
37945;SDS011;23769;52.478;13.448;2023-03-01T06:50:59;38.78;;;20.65;;
37945;SDS011;23769;52.478;13.448;2023-03-01T06:53:26;41.25;;;19.20;;
37945;SDS011;23769;52.478;13.448;2023-03-01T06:55:54;34.47;;;19.95;;
37945;SDS011;23769;52.478;13.448;2023-03-01T06:58:21;45.20;;;20.00;;
37945;SDS011;23769;52.478;13.448;2023-03-01T07:00:50;42.85;;;19.77;;
37945;SDS011;23769;52.478;13.448;2023-03-01T07:03:17;40.63;;;19.67;;
37945;SDS011;23769;52.478;13.448;2023-03-01T07:05:45;39.63;;;20.27;;
37945;SDS011;23769;52.478;13.448;2023-03-01T07:08:12;39.25;;;18.38;;
37945;SDS011;23769;52.478;13.448;2023-03-01T07:10:39;43.85;;;21.38;;
37945;SDS011;23769;52.478;13.448;2023-03-01T07:13:06;44.05;;;21.52;;
37945;SDS011;23769;52.478;13.448;2023-03-01T07:15:34;39.03;;;20.20;;
37945;SDS011;23769;52.478;13.448;2023-03-01T07:18:02;43.50;;;20.42;;
37945;SDS011;23769;52.478;13.448;2023-03-01T07:20:30;40.92;;;20.17;;
37945;SDS011;23769;52.478;13.448;2023-03-01T07:22:57;40.22;;;20.58;;
37945;SDS011;23769;52.478;13.448;2023-03-01T07:25:24;43.45;;;19.35;;
37945;SDS011;23769;52.478;13.448;2023-03-01T07:27:51;41.13;;;20.92;;
37945;SDS011;23769;52.478;13.448;2023-03-01T07:30:19;43.58;;;20.73;;
37945;SDS011;23769;52.478;13.448;2023-03-01T07:32:46;38.60;;;19.48;;
37945;SDS011;23769;52.478;13.448;2023-03-01T07:35:15;36.92;;;19.30;;
37945;SDS011;23769;52.478;13.448;2023-03-01T07:37:42;35.95;;;19.25;;
37945;SDS011;23769;52.478;13.448;2023-03-01T07:40:10;35.63;;;19.63;;
37945;SDS011;23769;52.478;13.448;2023-03-01T07:42:37;37.72;;;19.50;;
37945;SDS011;23769;52.478;13.448;2023-03-01T07:45:05;36.83;;;18.90;;
37945;SDS011;23769;52.478;13.448;2023-03-01T07:47:32;40.25;;;20.17;;
37945;SDS011;23769;52.478;13.448;2023-03-01T07:50:00;41.70;;;20.42;;
37945;SDS011;23769;52.478;13.448;2023-03-01T07:52:29;47.55;;;22.88;;
37945;SDS011;23769;52.478;13.448;2023-03-01T07:54:56;42.33;;;19.98;;
37945;SDS011;23769;52.478;13.448;2023-03-01T07:57:24;39.25;;;20.50;;
37945;SDS011;23769;52.478;13.448;2023-03-01T07:59:51;37.95;;;19.10;;
37945;SDS011;23769;52.478;13.448;2023-03-01T08:02:18;37.15;;;18.73;;
37945;SDS011;23769;52.478;13.448;2023-03-01T08:04:45;35.20;;;19.40;;
37945;SDS011;23769;52.478;13.448;2023-03-01T08:07:13;45.13;;;19.73;;
37945;SDS011;23769;52.478;13.448;2023-03-01T08:09:44;38.75;;;18.10;;
37945;SDS011;23769;52.478;13.448;2023-03-01T08:12:11;34.17;;;18.33;;
37945;SDS011;23769;52.478;13.448;2023-03-01T08:14:39;34.50;;;17.75;;
37945;SDS011;23769;52.478;13.448;2023-03-01T08:17:06;25.77;;;14.35;;
37945;SDS011;23769;52.478;13.448;2023-03-01T08:19:33;31.30;;;15.20;;
37945;SDS011;23769;52.478;13.448;2023-03-01T08:22:00;25.50;;;13.38;;
37945;SDS011;23769;52.478;13.448;2023-03-01T08:24:28;31.10;;;16.35;;
37945;SDS011;23769;52.478;13.448;2023-03-01T08:26:56;32.83;;;16.08;;
37945;SDS011;23769;52.478;13.448;2023-03-01T08:29:24;27.73;;;14.07;;
37945;SDS011;23769;52.478;13.448;2023-03-01T08:31:51;27.70;;;13.57;;
37945;SDS011;23769;52.478;13.448;2023-03-01T08:34:19;40.85;;;21.85;;
37945;SDS011;23769;52.478;13.448;2023-03-01T08:36:46;30.30;;;14.45;;
37945;SDS011;23769;52.478;13.448;2023-03-01T08:39:15;28.33;;;15.32;;
37945;SDS011;23769;52.478;13.448;2023-03-01T08:41:43;24.40;;;13.68;;
37945;SDS011;23769;52.478;13.448;2023-03-01T08:44:12;26.30;;;14.43;;
37945;SDS011;23769;52.478;13.448;2023-03-01T08:46:41;17.75;;;9.25;;
37945;SDS011;23769;52.478;13.448;2023-03-01T08:49:11;18.85;;;10.38;;
37945;SDS011;23769;52.478;13.448;2023-03-01T08:51:38;25.33;;;12.00;;
37945;SDS011;23769;52.478;13.448;2023-03-01T08:54:06;27.35;;;12.00;;
37945;SDS011;23769;52.478;13.448;2023-03-01T08:56:33;16.67;;;9.02;;
37945;SDS011;23769;52.478;13.448;2023-03-01T08:59:01;16.83;;;9.48;;
37945;SDS011;23769;52.478;13.448;2023-03-01T09:01:29;18.95;;;9.95;;
37945;SDS011;23769;52.478;13.448;2023-03-01T09:03:56;18.40;;;8.23;;
37945;SDS011;23769;52.478;13.448;2023-03-01T09:06:23;18.48;;;8.38;;
37945;SDS011;23769;52.478;13.448;2023-03-01T09:08:51;20.30;;;10.55;;
37945;SDS011;23769;52.478;13.448;2023-03-01T09:11:20;16.00;;;7.97;;
37945;SDS011;23769;52.478;13.448;2023-03-01T09:13:48;14.23;;;6.65;;
37945;SDS011;23769;52.478;13.448;2023-03-01T09:16:16;13.70;;;6.88;;
37945;SDS011;23769;52.478;13.448;2023-03-01T09:18:48;15.18;;;7.15;;
37945;SDS011;23769;52.478;13.448;2023-03-01T09:21:15;12.85;;;6.95;;
37945;SDS011;23769;52.478;13.448;2023-03-01T09:23:43;13.43;;;6.45;;
37945;SDS011;23769;52.478;13.448;2023-03-01T09:26:11;20.38;;;7.57;;
37945;SDS011;23769;52.478;13.448;2023-03-01T09:28:39;12.30;;;6.82;;
37945;SDS011;23769;52.478;13.448;2023-03-01T09:31:07;14.52;;;5.90;;
37945;SDS011;23769;52.478;13.448;2023-03-01T09:33:34;13.10;;;5.80;;
37945;SDS011;23769;52.478;13.448;2023-03-01T09:36:03;18.85;;;7.72;;
37945;SDS011;23769;52.478;13.448;2023-03-01T09:38:32;14.40;;;6.53;;
37945;SDS011;23769;52.478;13.448;2023-03-01T09:40:59;12.23;;;5.93;;
37945;SDS011;23769;52.478;13.448;2023-03-01T09:43:29;18.63;;;7.50;;
37945;SDS011;23769;52.478;13.448;2023-03-01T09:45:58;17.75;;;5.88;;
37945;SDS011;23769;52.478;13.448;2023-03-01T09:48:27;14.18;;;7.18;;
37945;SDS011;23769;52.478;13.448;2023-03-01T09:50:56;12.57;;;6.90;;
37945;SDS011;23769;52.478;13.448;2023-03-01T09:53:26;11.20;;;6.05;;
37945;SDS011;23769;52.478;13.448;2023-03-01T09:56:00;12.48;;;5.40;;
37945;SDS011;23769;52.478;13.448;2023-03-01T09:58:31;9.65;;;3.90;;
37945;SDS011;23769;52.478;13.448;2023-03-01T10:03:31;11.38;;;4.55;;
37945;SDS011;23769;52.478;13.448;2023-03-01T10:06:02;13.82;;;5.18;;
37945;SDS011;23769;52.478;13.448;2023-03-01T10:08:36;10.18;;;5.88;;
37945;SDS011;23769;52.478;13.448;2023-03-01T10:11:12;14.73;;;7.55;;
37945;SDS011;23769;52.478;13.448;2023-03-01T10:13:45;13.05;;;6.10;;
37945;SDS011;23769;52.478;13.448;2023-03-01T10:16:15;14.38;;;6.70;;
37945;SDS011;23769;52.478;13.448;2023-03-01T10:18:43;10.07;;;5.05;;
37945;SDS011;23769;52.478;13.448;2023-03-01T10:21:14;14.07;;;7.72;;
37945;SDS011;23769;52.478;13.448;2023-03-01T10:23:45;13.35;;;6.28;;
37945;SDS011;23769;52.478;13.448;2023-03-01T10:26:17;13.93;;;6.70;;
37945;SDS011;23769;52.478;13.448;2023-03-01T10:28:49;11.70;;;6.13;;
37945;SDS011;23769;52.478;13.448;2023-03-01T10:31:19;13.10;;;6.07;;
37945;SDS011;23769;52.478;13.448;2023-03-01T10:33:47;10.82;;;6.18;;
37945;SDS011;23769;52.478;13.448;2023-03-01T10:36:19;8.68;;;4.80;;
37945;SDS011;23769;52.478;13.448;2023-03-01T10:38:49;12.85;;;5.13;;
37945;SDS011;23769;52.478;13.448;2023-03-01T10:41:17;10.35;;;4.47;;
37945;SDS011;23769;52.478;13.448;2023-03-01T10:43:45;14.32;;;5.30;;
37945;SDS011;23769;52.478;13.448;2023-03-01T10:46:21;9.98;;;4.90;;
37945;SDS011;23769;52.478;13.448;2023-03-01T10:48:55;12.20;;;4.18;;
37945;SDS011;23769;52.478;13.448;2023-03-01T10:51:32;9.40;;;4.18;;
37945;SDS011;23769;52.478;13.448;2023-03-01T10:54:00;8.93;;;4.32;;
37945;SDS011;23769;52.478;13.448;2023-03-01T10:56:28;11.93;;;4.47;;
37945;SDS011;23769;52.478;13.448;2023-03-01T10:59:20;10.25;;;4.47;;
37945;SDS011;23769;52.478;13.448;2023-03-01T11:02:00;9.68;;;4.28;;
37945;SDS011;23769;52.478;13.448;2023-03-01T11:04:28;8.05;;;4.53;;
37945;SDS011;23769;52.478;13.448;2023-03-01T11:06:57;10.38;;;4.80;;
37945;SDS011;23769;52.478;13.448;2023-03-01T11:09:29;8.68;;;4.85;;
37945;SDS011;23769;52.478;13.448;2023-03-01T11:12:03;10.30;;;4.72;;
37945;SDS011;23769;52.478;13.448;2023-03-01T11:14:31;11.93;;;4.68;;
37945;SDS011;23769;52.478;13.448;2023-03-01T11:17:00;9.38;;;4.25;;
37945;SDS011;23769;52.478;13.448;2023-03-01T11:19:28;8.65;;;4.25;;
37945;SDS011;23769;52.478;13.448;2023-03-01T11:21:57;12.15;;;4.07;;
37945;SDS011;23769;52.478;13.448;2023-03-01T11:24:29;11.43;;;4.03;;
37945;SDS011;23769;52.478;13.448;2023-03-01T11:26:57;6.13;;;3.38;;
37945;SDS011;23769;52.478;13.448;2023-03-01T11:29:27;8.15;;;3.78;;
37945;SDS011;23769;52.478;13.448;2023-03-01T11:31:58;10.35;;;3.83;;
37945;SDS011;23769;52.478;13.448;2023-03-01T11:34:30;7.45;;;4.07;;
37945;SDS011;23769;52.478;13.448;2023-03-01T11:36:59;7.77;;;4.10;;
37945;SDS011;23769;52.478;13.448;2023-03-01T11:39:31;12.25;;;4.47;;
37945;SDS011;23769;52.478;13.448;2023-03-01T11:42:01;11.45;;;3.78;;
37945;SDS011;23769;52.478;13.448;2023-03-01T11:44:30;7.78;;;3.40;;
37945;SDS011;23769;52.478;13.448;2023-03-01T11:49:49;7.97;;;3.70;;
37945;SDS011;23769;52.478;13.448;2023-03-01T11:52:21;8.85;;;3.60;;
37945;SDS011;23769;52.478;13.448;2023-03-01T11:54:55;13.43;;;5.00;;
37945;SDS011;23769;52.478;13.448;2023-03-01T11:57:31;16.98;;;8.23;;
37945;SDS011;23769;52.478;13.448;2023-03-01T12:00:11;8.75;;;2.92;;
37945;SDS011;23769;52.478;13.448;2023-03-01T12:02:47;5.93;;;2.90;;
37945;SDS011;23769;52.478;13.448;2023-03-01T12:05:32;6.20;;;2.78;;
37945;SDS011;23769;52.478;13.448;2023-03-01T12:08:06;9.02;;;3.90;;
37945;SDS011;23769;52.478;13.448;2023-03-01T12:10:39;7.72;;;2.85;;
37945;SDS011;23769;52.478;13.448;2023-03-01T12:13:15;5.55;;;2.83;;
37945;SDS011;23769;52.478;13.448;2023-03-01T12:18:33;6.10;;;3.05;;
37945;SDS011;23769;52.478;13.448;2023-03-01T12:21:10;7.07;;;3.25;;
37945;SDS011;23769;52.478;13.448;2023-03-01T12:26:28;4.90;;;2.90;;
37945;SDS011;23769;52.478;13.448;2023-03-01T12:34:27;8.02;;;3.22;;
37945;SDS011;23769;52.478;13.448;2023-03-01T12:37:03;11.45;;;3.40;;
37945;SDS011;23769;52.478;13.448;2023-03-01T12:39:42;5.30;;;2.70;;
37945;SDS011;23769;52.478;13.448;2023-03-01T12:42:15;5.40;;;2.70;;
37945;SDS011;23769;52.478;13.448;2023-03-01T12:44:50;6.28;;;2.53;;
37945;SDS011;23769;52.478;13.448;2023-03-01T12:47:24;5.88;;;2.58;;
37945;SDS011;23769;52.478;13.448;2023-03-01T12:49:54;7.25;;;2.70;;
37945;SDS011;23769;52.478;13.448;2023-03-01T12:52:23;4.53;;;2.30;;
37945;SDS011;23769;52.478;13.448;2023-03-01T12:54:51;5.93;;;2.72;;
37945;SDS011;23769;52.478;13.448;2023-03-01T12:57:21;5.75;;;2.60;;
37945;SDS011;23769;52.478;13.448;2023-03-01T12:59:52;7.13;;;2.60;;
37945;SDS011;23769;52.478;13.448;2023-03-01T13:02:26;5.28;;;2.42;;
37945;SDS011;23769;52.478;13.448;2023-03-01T13:05:02;3.95;;;2.25;;
37945;SDS011;23769;52.478;13.448;2023-03-01T13:07:35;6.03;;;2.35;;
37945;SDS011;23769;52.478;13.448;2023-03-01T13:10:11;7.55;;;3.00;;
37945;SDS011;23769;52.478;13.448;2023-03-01T13:12:49;11.07;;;2.60;;
37945;SDS011;23769;52.478;13.448;2023-03-01T13:15:33;5.57;;;2.75;;
37945;SDS011;23769;52.478;13.448;2023-03-01T13:18:01;11.10;;;5.30;;
37945;SDS011;23769;52.478;13.448;2023-03-01T13:20:33;9.35;;;3.80;;
37945;SDS011;23769;52.478;13.448;2023-03-01T13:23:03;6.07;;;2.40;;
37945;SDS011;23769;52.478;13.448;2023-03-01T13:25:31;4.70;;;1.92;;
37945;SDS011;23769;52.478;13.448;2023-03-01T13:30:45;10.40;;;4.38;;
37945;SDS011;23769;52.478;13.448;2023-03-01T13:35:59;7.18;;;2.70;;
37945;SDS011;23769;52.478;13.448;2023-03-01T13:38:37;3.92;;;2.22;;
37945;SDS011;23769;52.478;13.448;2023-03-01T13:41:04;6.03;;;2.60;;
37945;SDS011;23769;52.478;13.448;2023-03-01T13:43:32;6.50;;;2.53;;
37945;SDS011;23769;52.478;13.448;2023-03-01T13:46:01;6.07;;;2.22;;
37945;SDS011;23769;52.478;13.448;2023-03-01T13:48:29;6.97;;;2.17;;
37945;SDS011;23769;52.478;13.448;2023-03-01T13:50:57;5.60;;;2.28;;
37945;SDS011;23769;52.478;13.448;2023-03-01T13:53:26;4.63;;;2.00;;
37945;SDS011;23769;52.478;13.448;2023-03-01T13:55:55;5.00;;;1.75;;
37945;SDS011;23769;52.478;13.448;2023-03-01T13:58:23;3.58;;;2.00;;
37945;SDS011;23769;52.478;13.448;2023-03-01T14:00:58;5.10;;;1.83;;
37945;SDS011;23769;52.478;13.448;2023-03-01T14:03:27;5.43;;;2.22;;
37945;SDS011;23769;52.478;13.448;2023-03-01T14:06:02;8.18;;;3.17;;
37945;SDS011;23769;52.478;13.448;2023-03-01T14:08:31;5.75;;;2.65;;
37945;SDS011;23769;52.478;13.448;2023-03-01T14:11:02;10.23;;;3.60;;
37945;SDS011;23769;52.478;13.448;2023-03-01T14:13:37;6.45;;;3.00;;
37945;SDS011;23769;52.478;13.448;2023-03-01T14:18:52;10.63;;;3.42;;
37945;SDS011;23769;52.478;13.448;2023-03-01T14:21:21;6.18;;;2.58;;
37945;SDS011;23769;52.478;13.448;2023-03-01T14:23:50;5.20;;;2.40;;
37945;SDS011;23769;52.478;13.448;2023-03-01T14:26:20;4.88;;;2.95;;
37945;SDS011;23769;52.478;13.448;2023-03-01T14:28:47;4.65;;;2.65;;
37945;SDS011;23769;52.478;13.448;2023-03-01T14:34:18;6.10;;;2.45;;
37945;SDS011;23769;52.478;13.448;2023-03-01T14:36:45;5.20;;;2.38;;
37945;SDS011;23769;52.478;13.448;2023-03-01T14:39:16;6.43;;;2.72;;
37945;SDS011;23769;52.478;13.448;2023-03-01T14:41:43;7.13;;;3.08;;
37945;SDS011;23769;52.478;13.448;2023-03-01T14:44:12;5.00;;;2.35;;
37945;SDS011;23769;52.478;13.448;2023-03-01T14:46:41;5.25;;;2.67;;
37945;SDS011;23769;52.478;13.448;2023-03-01T14:49:10;5.18;;;2.47;;
37945;SDS011;23769;52.478;13.448;2023-03-01T14:51:40;7.07;;;2.58;;
37945;SDS011;23769;52.478;13.448;2023-03-01T14:54:16;6.32;;;2.55;;